Time;durP1;ratioP1;P1;durP2;ratioP2;P2;SDS_P1;SDS_P2;PMS_P1;PMS_P2;Temp;Humidity;BMP_temperature;BMP_pressure;BME280_temperature;BME280_humidity;BME280_pressure;Samples;Min_cycle;Max_cycle;Signal;HPM_P1;HPM_P2
2021/04/14 00:02:45;;;;;;;18.13;16.03;;;;;;;3.48;75.56;99431.08;2228426;80;21089;-81
2021/04/14 00:05:46;;;;;;;16.33;14.60;;;;;;;4.60;87.72;99431.16;2228216;79;21134;-81
2021/04/14 00:08:47;;;;;;;15.40;13.67;;;;;;;5.04;75.69;99433.98;2227962;80;21157;-81
2021/04/14 00:11:48;;;;;;;15.87;13.37;;;;;;;4.34;73.37;99438.63;2228047;80;21114;-79
2021/04/14 00:14:49;;;;;;;16.77;13.80;;;;;;;3.73;73.45;99437.42;2227795;80;21214;-80
2021/04/14 00:17:50;;;;;;;15.30;13.33;;;;;;;3.29;73.81;99437.80;2227133;80;21117;-80
2021/04/14 00:20:51;;;;;;;15.30;13.70;;;;;;;2.92;74.22;99432.08;2227266;79;21097;-80
2021/04/14 00:23:52;;;;;;;15.90;14.03;;;;;;;2.66;74.60;99438.47;2227178;80;21101;-80
2021/04/14 00:26:54;;;;;;;15.27;13.40;;;;;;;2.49;75.06;99434.98;2226687;79;21153;-80
2021/04/14 00:29:55;;;;;;;15.73;13.00;;;;;;;2.40;75.24;99437.06;2227080;79;21094;-80
2021/04/14 00:32:56;;;;;;;14.80;13.30;;;;;;;2.31;75.40;99438.27;2226729;80;21122;-80
2021/04/14 00:35:57;;;;;;;17.83;15.87;;;;;;;2.25;75.72;99436.25;2226935;79;21141;-80
2021/04/14 00:38:58;;;;;;;17.80;15.23;;;;;;;2.19;75.96;99438.09;2226752;79;21522;-81
2021/04/14 00:41:59;;;;;;;16.30;13.87;;;;;;;2.08;75.87;99440.48;2227210;80;21122;-81
2021/04/14 00:45:00;;;;;;;18.90;16.07;;;;;;;1.98;76.09;99438.62;2226820;79;21134;-81
2021/04/14 00:48:01;;;;;;;18.47;15.23;;;;;;;1.89;76.20;99433.84;2226839;80;21271;-81
2021/04/14 00:51:04;;;;;;;17.07;15.13;;;;;;;1.82;76.47;99433.91;2226985;80;21110;-81
2021/04/14 00:54:05;;;;;;;18.50;16.10;;;;;;;1.77;76.70;99427.63;2226768;80;21066;-82
2021/04/14 00:57:06;;;;;;;15.80;14.30;;;;;;;1.74;76.79;99431.31;2226901;80;21398;-82
2021/04/14 01:00:07;;;;;;;17.97;15.80;;;;;;;1.70;77.00;99428.05;2227189;80;21081;-82
2021/04/14 01:03:08;;;;;;;16.47;14.40;;;;;;;1.66;77.04;99426.11;2226965;80;21106;-81
2021/04/14 01:06:10;;;;;;;16.87;15.10;;;;;;;1.65;77.20;99424.73;2237535;79;21506;-82
2021/04/14 01:09:11;;;;;;;16.43;14.80;;;;;;;1.61;77.30;99427.53;2244758;79;21114;-82
2021/04/14 01:12:12;;;;;;;15.73;14.17;;;;;;;1.59;77.48;99429.14;2244684;79;21085;-82
2021/04/14 01:15:13;;;;;;;16.23;14.63;;;;;;;1.56;77.62;99423.81;2244931;79;21208;-82
2021/04/14 01:18:14;;;;;;;15.97;14.00;;;;;;;1.52;77.75;99425.33;2244849;79;21109;-82
2021/04/14 01:21:15;;;;;;;16.47;14.83;;;;;;;1.48;77.96;99423.79;2244847;79;21093;-81
2021/04/14 01:24:17;;;;;;;16.97;14.60;;;;;;;1.45;78.06;99416.78;2244861;79;21109;-82
2021/04/14 01:27:18;;;;;;;16.10;14.50;;;;;;;1.46;78.00;99416.38;2244706;79;21117;-81
2021/04/14 01:30:19;;;;;;;16.83;15.13;;;;;;;1.46;78.18;99418.95;2244895;79;21065;-82
2021/04/14 01:33:20;;;;;;;16.80;15.03;;;;;;;1.43;78.21;99412.35;2244995;79;21097;-82
2021/04/14 01:36:21;;;;;;;17.33;15.53;;;;;;;1.42;78.33;99410.58;2244950;79;21113;-82
2021/04/14 01:39:22;;;;;;;16.63;14.93;;;;;;;1.44;78.60;99412.44;2245503;79;21359;-82
2021/04/14 01:42:23;;;;;;;15.60;14.00;;;;;;;1.42;78.92;99415.72;2245325;79;21101;-82
2021/04/14 01:45:24;;;;;;;16.83;14.20;;;;;;;1.37;79.01;99414.58;2245214;79;21125;-82
2021/04/14 01:48:25;;;;;;;16.87;14.40;;;;;;;1.33;79.49;99412.63;2245275;79;21132;-82
2021/04/14 01:51:26;;;;;;;16.57;14.83;;;;;;;1.29;79.23;99415.42;2245084;79;21145;-81
2021/04/14 01:54:27;;;;;;;16.50;14.83;;;;;;;1.24;79.31;99414.28;2245115;79;21085;-82
2021/04/14 01:57:28;;;;;;;16.27;14.60;;;;;;;1.23;79.29;99408.64;2245340;79;21383;-82
2021/04/14 02:00:29;;;;;;;16.47;14.40;;;;;;;1.21;79.57;99403.42;2245201;79;21380;-82
2021/04/14 02:03:30;;;;;;;14.90;13.40;;;;;;;1.16;79.67;99400.98;2245373;79;21058;-82
2021/04/14 02:06:31;;;;;;;14.37;12.87;;;;;;;1.16;79.66;99398.41;2245112;79;21141;-81
2021/04/14 02:09:32;;;;;;;16.07;13.70;;;;;;;1.16;79.73;99395.84;2245128;79;21391;-82
2021/04/14 02:12:33;;;;;;;16.60;14.97;;;;;;;1.12;79.71;99393.89;2245182;79;21097;-82
2021/04/14 02:15:34;;;;;;;15.60;14.07;;;;;;;1.11;79.73;99395.09;2245245;79;21105;-82
2021/04/14 02:18:35;;;;;;;15.97;14.27;;;;;;;1.08;80.31;99394.52;2244914;79;21066;-82
2021/04/14 02:21:37;;;;;;;15.47;13.93;;;;;;;1.06;80.50;99400.36;2246667;79;21395;-81
2021/04/14 02:24:39;;;;;;;15.40;13.90;;;;;;;1.01;80.36;99391.10;2245002;79;21097;-81
2021/04/14 02:27:40;;;;;;;15.00;13.40;;;;;;;1.00;80.42;99388.44;2244946;79;21152;-81
2021/04/14 02:30:41;;;;;;;14.70;13.20;;;;;;;0.98;80.73;99388.35;2245014;79;21105;-81
2021/04/14 02:33:42;;;;;;;14.30;12.70;;;;;;;0.97;80.80;99386.58;2244910;79;21101;-81
2021/04/14 02:36:43;;;;;;;14.83;13.33;;;;;;;0.96;80.57;99386.09;2245020;79;21415;-81
2021/04/14 02:39:44;;;;;;;12.10;11.03;;;;;;;0.96;80.55;99384.81;2245126;79;21167;-81
2021/04/14 02:42:45;;;;;;;12.90;11.60;;;;;;;0.97;81.01;99389.55;2245154;79;21171;-82
2021/04/14 02:45:46;;;;;;;14.17;11.83;;;;;;;0.94;80.65;99380.86;2245113;79;21094;-80
2021/04/14 02:48:47;;;;;;;12.80;11.53;;;;;;;0.94;81.03;99380.86;2245431;79;21129;-83
2021/04/14 02:51:48;;;;;;;17.00;15.40;;;;;;;0.92;81.09;99379.89;2245926;79;21077;-84
2021/04/14 02:54:49;;;;;;;11.20;10.20;;;;;;;3.49;90.45;99366.14;2245994;79;21097;-81
2021/04/14 02:57:50;;;;;;;8.40;7.50;;;;;;;6.61;84.92;99355.17;2245582;79;21128;-81
2021/04/14 03:00:51;;;;;;;7.70;7.00;;;;;;;5.89;71.63;99355.45;2245526;79;21110;-82
2021/04/14 03:03:55;;;;;;;8.03;7.33;;;;;;;4.37;71.18;99365.51;2245563;79;21112;-81
2021/04/14 03:06:56;;;;;;;8.40;7.60;;;;;;;3.29;72.73;99368.13;2232936;79;21141;-82
2021/04/14 03:09:57;;;;;;;9.30;8.40;;;;;;;2.61;74.25;99361.72;2227784;80;21125;-80
2021/04/14 03:12:58;;;;;;;8.10;7.40;;;;;;;2.11;75.77;99366.38;2227400;80;21089;-81
2021/04/14 03:16:00;;;;;;;9.27;8.37;;;;;;;2.02;76.53;99360.73;2227944;80;21098;-82
2021/04/14 03:19:01;;;;;;;10.50;9.03;;;;;;;1.76;77.05;99362.79;2227840;80;21121;-82
2021/04/14 03:22:02;;;;;;;11.73;9.87;;;;;;;1.55;77.71;99370.58;2228079;80;21391;-82
2021/04/14 03:25:03;;;;;;;10.50;9.50;;;;;;;1.40;78.52;99369.73;2228152;80;21101;-82
2021/04/14 03:28:04;;;;;;;11.43;10.43;;;;;;;1.30;78.78;99367.45;2227869;80;21169;-81
2021/04/14 03:31:05;;;;;;;12.97;11.67;;;;;;;1.19;79.15;99366.44;2227856;79;21098;-82
2021/04/14 03:34:06;;;;;;;13.07;11.77;;;;;;;1.13;79.28;99360.95;2227022;80;21085;-80
2021/04/14 03:37:07;;;;;;;14.20;12.70;;;;;;;1.12;79.56;99363.03;2226858;79;21380;-80
2021/04/14 03:40:08;;;;;;;13.80;12.40;;;;;;;1.11;79.91;99362.95;2226543;80;21062;-81
2021/04/14 03:43:10;;;;;;;13.77;12.37;;;;;;;1.08;80.32;99361.48;2226586;80;21125;-80
2021/04/14 03:46:11;;;;;;;12.40;10.33;;;;;;;1.07;80.59;99358.03;2226525;80;21394;-79
2021/04/14 03:49:12;;;;;;;19.23;13.33;;;;;;;1.05;80.55;99363.88;2226617;80;21133;-80
2021/04/14 03:52:13;;;;;;;14.80;13.10;;;;;;;1.02;80.81;99366.28;2226570;80;21383;-80
2021/04/14 03:55:14;;;;;;;18.73;12.17;;;;;;;1.01;80.86;99360.65;2227218;80;21098;-82
2021/04/14 03:58:15;;;;;;;13.13;11.33;;;;;;;1.00;80.82;99364.02;2226449;80;21098;-80
2021/04/14 04:01:34;;;;;;;17.73;12.17;;;;;;;1.00;80.94;99367.48;2226823;80;21006;-81
2021/04/14 04:04:36;;;;;;;16.37;12.23;;;;;;;0.97;81.23;99370.27;2226595;80;21133;-81
2021/04/14 04:07:37;;;;;;;13.27;10.97;;;;;;;0.97;81.11;99375.41;2226668;79;21148;-80
2021/04/14 04:10:38;;;;;;;16.03;11.43;;;;;;;1.10;81.05;99366.31;2226578;80;21070;-81
2021/04/14 04:13:39;;;;;;;15.13;10.53;;;;;;;1.08;81.09;99373.94;2226866;80;21095;-82
2021/04/14 04:16:40;;;;;;;17.17;11.00;;;;;;;1.05;80.86;99368.63;2226965;80;21364;-80
2021/04/14 04:19:42;;;;;;;14.07;10.67;;;;;;;1.05;81.00;99371.20;2226938;80;21098;-80
2021/04/14 04:22:43;;;;;;;11.70;10.50;;;;;;;1.08;81.11;99373.06;2227020;80;21109;-80
2021/04/14 04:25:44;;;;;;;14.77;11.67;;;;;;;1.06;81.19;99379.80;2226756;80;21105;-81
2021/04/14 04:28:45;;;;;;;19.27;13.87;;;;;;;1.06;81.20;99376.83;2227160;80;21395;-83
2021/04/14 04:31:46;;;;;;;22.23;14.20;;;;;;;1.07;81.52;99382.45;2227092;80;21110;-80
2021/04/14 04:34:47;;;;;;;18.67;11.80;;;;;;;1.10;82.09;99376.20;2227643;80;21082;-84
2021/04/14 04:37:48;;;;;;;15.20;11.70;;;;;;;1.22;81.21;99380.76;2227455;80;21161;-82
2021/04/14 04:40:49;;;;;;;17.13;12.27;;;;;;;1.18;80.99;99381.78;2228052;80;21093;-85
2021/04/14 04:43:50;;;;;;;15.37;12.07;;;;;;;1.16;81.04;99389.41;2228364;80;21117;-83
2021/04/14 04:46:51;;;;;;;14.23;12.00;;;;;;;1.12;81.12;99384.89;2228541;80;21077;-81
2021/04/14 04:49:52;;;;;;;19.63;13.07;;;;;;;1.10;81.35;99393.31;2228604;80;21113;-82
2021/04/14 04:52:53;;;;;;;20.27;13.37;;;;;;;1.08;81.16;99393.63;2228359;80;21117;-82
2021/04/14 04:55:54;;;;;;;16.70;12.30;;;;;;;1.05;81.12;99396.91;2228496;80;21062;-80
2021/04/14 04:58:55;;;;;;;13.83;11.63;;;;;;;1.02;81.59;99401.88;2228759;80;21112;-81
2021/04/14 05:01:56;;;;;;;13.20;11.40;;;;;;;0.99;81.28;99401.70;2228800;80;21094;-81
2021/04/14 05:04:57;;;;;;;17.23;12.90;;;;;;;1.00;81.50;99398.33;2228178;80;21110;-81
2021/04/14 05:07:58;;;;;;;15.70;11.90;;;;;;;0.99;81.54;99396.55;2227996;79;21142;-80
2021/04/14 05:11:00;;;;;;;14.03;12.60;;;;;;;0.99;81.34;99405.95;2227397;79;21126;-80
2021/04/14 05:14:02;;;;;;;11.40;10.17;;;;;;;0.99;81.33;99398.23;2226688;80;21102;-80
2021/04/14 05:17:03;;;;;;;12.60;10.87;;;;;;;1.04;81.70;99407.10;2227208;80;21117;-82
2021/04/14 05:20:04;;;;;;;12.30;11.00;;;;;;;1.04;81.80;99409.27;2227296;80;21074;-84
2021/04/14 05:23:05;;;;;;;11.50;10.33;;;;;;;1.04;81.67;99411.84;2227476;79;21110;-82
2021/04/14 05:26:06;;;;;;;13.03;11.67;;;;;;;1.03;81.92;99403.64;2227632;80;21063;-81
2021/04/14 05:29:07;;;;;;;13.93;12.43;;;;;;;1.04;81.83;99413.13;2228168;80;21146;-80
2021/04/14 05:32:08;;;;;;;17.90;13.50;;;;;;;1.03;81.65;99415.22;2227941;80;21368;-81
2021/04/14 05:35:09;;;;;;;13.40;12.00;;;;;;;1.05;81.72;99414.02;2226888;80;21502;-81
2021/04/14 05:38:10;;;;;;;14.10;12.70;;;;;;;1.07;81.79;99412.42;2226724;80;21150;-80
2021/04/14 05:41:11;;;;;;;13.10;11.70;;;;;;;1.08;81.66;99416.37;2226965;80;21102;-81
2021/04/14 05:44:12;;;;;;;16.00;14.27;;;;;;;1.10;81.75;99417.34;2227091;80;21232;-80
2021/04/14 05:47:14;;;;;;;14.30;12.00;;;;;;;1.09;81.83;99414.28;2226609;80;21129;-81
2021/04/14 05:50:15;;;;;;;13.17;11.87;;;;;;;1.04;82.00;99410.56;2227131;79;21094;-80
2021/04/14 05:53:16;;;;;;;13.90;12.37;;;;;;;0.99;81.92;99414.55;2228457;80;21098;-80
2021/04/14 05:56:17;;;;;;;13.57;12.07;;;;;;;1.00;81.89;99415.03;2227899;80;21058;-81
2021/04/14 05:59:18;;;;;;;14.00;12.50;;;;;;;1.01;82.22;99412.95;2228094;80;21113;-81
2021/04/14 06:02:20;;;;;;;13.63;12.23;;;;;;;1.02;82.02;99409.59;2227262;80;21114;-81
2021/04/14 06:05:21;;;;;;;14.13;12.67;;;;;;;1.04;82.17;99413.53;2228461;79;21109;-83
2021/04/14 06:08:22;;;;;;;11.10;10.10;;;;;;;1.05;81.99;99414.02;2242857;79;21128;-83
2021/04/14 06:11:23;;;;;;;10.50;9.00;;;;;;;1.07;81.88;99414.59;2245233;79;21105;-81
2021/04/14 06:14:24;;;;;;;11.00;8.83;;;;;;;1.07;81.54;99423.59;2245598;79;21092;-80
2021/04/14 06:17:26;;;;;;;9.40;7.77;;;;;;;1.04;81.64;99412.24;2244982;79;21082;-80
2021/04/14 06:20:27;;;;;;;10.03;8.03;;;;;;;1.05;81.70;99413.62;2245465;79;21093;-81
2021/04/14 06:23:28;;;;;;;8.30;7.50;;;;;;;1.06;81.73;99408.97;2245275;79;21125;-82
2021/04/14 06:26:36;;;;;;;11.03;8.23;;;;;;;1.05;81.56;99412.33;2245475;79;21109;-82
2021/04/14 06:29:35;;;;;;;11.80;8.80;;;;;;;1.05;81.75;99402.45;2244275;79;21130;-82
2021/04/14 06:32:36;;;;;;;12.17;9.57;;;;;;;1.03;81.88;99404.93;2244359;79;21109;-82
2021/04/14 06:35:37;;;;;;;11.53;10.17;;;;;;;1.04;81.86;99404.13;2244797;79;21121;-80
2021/04/14 06:38:42;;;;;;;10.40;9.30;;;;;;;1.04;81.72;99405.42;2245068;79;21435;-81
2021/04/14 06:41:53;;;;;;;11.27;8.97;;;;;;;1.07;81.80;99400.45;2245214;79;21089;-81
2021/04/14 06:44:49;;;;;;;13.67;10.53;;;;;;;1.13;81.76;99403.77;2244095;79;21391;-84
2021/04/14 06:47:51;;;;;;;19.93;11.67;;;;;;;1.14;81.67;99397.83;2244954;79;21144;-81
2021/04/14 06:50:53;;;;;;;14.30;9.87;;;;;;;1.17;81.59;99399.30;2245688;79;21208;-80
2021/04/14 06:53:54;;;;;;;13.03;8.30;;;;;;;1.16;81.34;99398.41;2245058;79;21085;-81
2021/04/14 06:56:55;;;;;;;12.77;8.70;;;;;;;1.20;81.36;99402.05;2245410;79;21089;-82
2021/04/14 06:59:56;;;;;;;13.93;8.70;;;;;;;1.24;81.27;99401.02;2245137;79;21360;-81
2021/04/14 07:02:57;;;;;;;12.63;8.17;;;;;;;1.29;81.18;99401.28;2245706;79;21434;-81
2021/04/14 07:05:58;;;;;;;13.20;8.37;;;;;;;1.31;81.09;99400.97;2245596;79;21093;-83
2021/04/14 07:08:59;;;;;;;8.90;6.87;;;;;;;1.34;80.98;99399.86;2227379;79;21137;-81
2021/04/14 07:12:00;;;;;;;9.30;7.53;;;;;;;1.37;80.97;99396.57;2226735;80;21125;-81
2021/04/14 07:15:03;;;;;;;9.23;6.80;;;;;;;1.42;80.92;99399.89;2227621;80;21098;-81
2021/04/14 07:18:05;;;;;;;8.10;6.13;;;;;;;1.42;80.80;99396.03;2227481;80;21217;-82
2021/04/14 07:21:06;;;;;;;8.20;5.97;;;;;;;1.45;80.67;99399.17;2227348;80;21404;-83
2021/04/14 07:24:07;;;;;;;14.33;6.57;;;;;;;1.42;80.97;99402.46;2227629;80;21070;-80
2021/04/14 07:27:08;;;;;;;9.77;5.57;;;;;;;1.45;80.81;99405.20;2227660;80;21122;-82
2021/04/14 07:30:09;;;;;;;6.97;5.50;;;;;;;1.46;80.86;99396.69;2228014;80;21106;-81
2021/04/14 07:33:13;;;;;;;8.40;4.63;;;;;;;1.53;80.80;99406.52;2226804;79;21106;-81
2021/04/14 07:36:14;;;;;;;8.10;5.50;;;;;;;1.55;80.53;99407.49;2227014;80;21066;-81
2021/04/14 07:39:15;;;;;;;5.73;5.20;;;;;;;1.55;80.67;99408.78;2226554;80;21101;-83
2021/04/14 07:42:20;;;;;;;7.87;4.60;;;;;;;1.56;80.84;99413.52;2226819;80;21106;-82
2021/04/14 07:45:19;;;;;;;9.17;4.60;;;;;;;1.57;80.62;99413.61;2227232;80;21110;-81
2021/04/14 07:48:20;;;;;;;5.23;4.20;;;;;;;1.59;80.59;99413.70;2227071;80;21141;-81
2021/04/14 07:51:22;;;;;;;5.57;4.90;;;;;;;1.62;80.79;99407.44;2227172;80;21228;-82
2021/04/14 07:54:25;;;;;;;7.33;5.40;;;;;;;1.62;80.52;99406.15;2227079;80;21090;-80
2021/04/14 07:57:26;;;;;;;6.17;4.30;;;;;;;1.60;80.59;99408.64;2227547;80;21113;-83
2021/04/14 08:00:27;;;;;;;7.30;4.67;;;;;;;1.67;80.20;99404.72;2227342;80;21070;-82
2021/04/14 08:03:29;;;;;;;6.17;4.27;;;;;;;1.72;80.34;99406.26;2227745;79;21141;-81
2021/04/14 08:06:30;;;;;;;6.03;4.13;;;;;;;1.75;80.20;99402.20;2227571;79;21085;-83
2021/04/14 08:09:31;;;;;;;5.80;4.50;;;;;;;1.76;80.24;99416.84;2227817;80;21152;-80
2021/04/14 08:12:32;;;;;;;9.10;4.80;;;;;;;1.83;80.13;99404.80;2227773;80;21102;-80
2021/04/14 08:15:33;;;;;;;6.60;4.70;;;;;;;1.93;79.77;99399.74;2227937;79;21126;-81
2021/04/14 08:18:36;;;;;;;6.20;4.47;;;;;;;1.95;79.81;99401.11;2228324;79;21383;-81
2021/04/14 08:21:37;;;;;;;10.27;5.37;;;;;;;1.98;79.77;99403.86;2228235;80;21098;-81
2021/04/14 08:24:38;;;;;;;10.40;5.40;;;;;;;2.02;79.73;99404.50;2227619;80;21109;-81
2021/04/14 08:27:44;;;;;;;9.47;7.17;;;;;;;2.03;79.52;99404.98;2226905;80;21110;-81
2021/04/14 08:30:42;;;;;;;5.67;4.43;;;;;;;2.05;79.26;99402.98;2226228;80;21244;-81
2021/04/14 08:33:43;;;;;;;7.10;3.67;;;;;;;2.11;79.36;99406.28;2227045;80;21105;-81
2021/04/14 08:36:44;;;;;;;6.10;3.33;;;;;;;2.16;78.70;99407.42;2226680;80;21212;-81
2021/04/14 08:39:45;;;;;;;3.93;3.53;;;;;;;2.18;78.81;99410.56;2227336;79;21113;-80
2021/04/14 08:42:46;;;;;;;4.80;3.97;;;;;;;2.16;78.75;99404.84;2227869;80;21070;-80
2021/04/14 08:45:47;;;;;;;4.20;3.20;;;;;;;2.18;79.16;99410.97;2227149;80;21111;-82
2021/04/14 08:48:49;;;;;;;3.50;3.20;;;;;;;2.21;78.75;99404.69;2227372;79;21150;-80
2021/04/14 08:51:50;;;;;;;4.60;3.70;;;;;;;2.22;78.79;99403.48;2226653;80;21224;-81
2021/04/14 08:54:52;;;;;;;5.10;3.70;;;;;;;2.24;78.62;99408.31;2227084;80;21070;-83
2021/04/14 08:57:53;;;;;;;6.03;4.73;;;;;;;2.24;78.91;99410.89;2227199;80;21101;-82
2021/04/14 09:00:55;;;;;;;6.43;4.00;;;;;;;3.49;86.50;99410.02;2226569;80;21358;-78
2021/04/14 09:03:56;;;;;;;5.33;3.33;;;;;;;5.75;84.50;99389.90;2226354;80;21093;-78
2021/04/14 09:06:58;;;;;;;8.87;3.70;;;;;;;6.60;78.14;99391.02;2225803;79;21102;-77
2021/04/14 09:09:59;;;;;;;7.07;3.17;;;;;;;7.46;78.84;99387.09;2226053;80;21090;-78
2021/04/14 09:13:01;;;;;;;3.03;2.50;;;;;;;7.95;73.66;99387.84;2225997;80;21121;-78
2021/04/14 09:16:03;;;;;;;4.57;2.50;;;;;;;7.64;70.39;99388.98;2226080;79;21102;-79
2021/04/14 09:19:04;;;;;;;3.23;2.40;;;;;;;6.94;65.33;99384.93;2227218;80;21101;-79
2021/04/14 09:22:05;;;;;;;7.30;2.97;;;;;;;5.55;66.90;99400.76;2226145;80;21125;-78
2021/04/14 09:25:07;;;;;;;5.17;3.40;;;;;;;4.60;68.73;99388.09;2225864;80;21093;-78
2021/04/14 09:28:09;;;;;;;5.10;2.90;;;;;;;4.08;70.92;99390.00;2226313;79;21145;-78
2021/04/14 09:31:10;;;;;;;4.90;2.43;;;;;;;3.80;71.85;99397.77;2226408;80;21085;-78
2021/04/14 09:34:11;;;;;;;5.27;2.93;;;;;;;3.59;72.63;99386.42;2226200;80;21105;-79
2021/04/14 09:37:13;;;;;;;7.47;2.97;;;;;;;3.41;73.03;99388.08;2226236;80;21153;-78
2021/04/14 09:40:14;;;;;;;4.80;2.80;;;;;;;3.26;73.85;99383.06;2226499;80;21101;-79
2021/04/14 09:43:15;;;;;;;4.13;2.80;;;;;;;3.20;74.20;99379.77;2226335;79;21383;-79
2021/04/14 09:46:17;;;;;;;4.97;3.63;;;;;;;3.18;74.50;99378.81;2226261;79;21109;-79
2021/04/14 09:49:19;;;;;;;9.40;5.00;;;;;;;3.11;74.88;99375.45;2226781;80;21404;-80
2021/04/14 09:52:20;;;;;;;12.30;8.10;;;;;;;3.13;75.00;99386.73;2225841;80;21105;-79
2021/04/14 09:55:21;;;;;;;12.53;5.20;;;;;;;3.15;75.14;99382.53;2226206;80;21236;-79
2021/04/14 09:58:23;;;;;;;5.60;3.67;;;;;;;3.20;75.26;99382.36;2226604;80;21066;-79
2021/04/14 10:01:24;;;;;;;5.93;3.33;;;;;;;3.17;75.14;99375.75;2226682;80;21110;-79
2021/04/14 10:04:25;;;;;;;7.83;3.50;;;;;;;3.01;75.50;99378.38;2226537;80;21078;-79
2021/04/14 10:07:27;;;;;;;4.93;3.33;;;;;;;3.04;75.44;99373.78;2230202;79;21155;-80
2021/04/14 10:10:28;;;;;;;5.70;3.70;;;;;;;3.13;75.77;99383.27;2244131;79;21133;-79
2021/04/14 10:13:32;;;;;;;7.57;3.73;;;;;;;3.20;76.06;99375.91;2244171;79;21208;-78
2021/04/14 10:16:33;;;;;;;6.30;3.90;;;;;;;3.30;75.83;99378.94;2243822;79;21129;-79
2021/04/14 10:19:35;;;;;;;5.07;3.80;;;;;;;3.24;75.50;99382.50;2243853;79;21073;-79
2021/04/14 10:22:36;;;;;;;7.43;4.53;;;;;;;3.17;75.81;99375.75;2244201;79;21101;-80
2021/04/14 10:25:38;;;;;;;6.73;4.17;;;;;;;3.12;75.87;99376.34;2243572;79;21074;-79
2021/04/14 10:28:39;;;;;;;7.47;4.13;;;;;;;3.18;75.99;99383.09;2243570;79;21164;-79
2021/04/14 10:31:40;;;;;;;10.10;6.40;;;;;;;3.29;75.97;99369.42;2243686;79;21124;-79
2021/04/14 10:34:42;;;;;;;13.40;9.03;;;;;;;3.36;76.17;99367.22;2243856;79;21086;-80
2021/04/14 10:37:43;;;;;;;5.10;4.60;;;;;;;3.32;76.22;99370.45;2244007;79;21259;-80
2021/04/14 10:40:44;;;;;;;11.90;9.57;;;;;;;3.25;75.71;99368.39;2243972;79;21101;-78
2021/04/14 10:43:45;;;;;;;10.93;4.90;;;;;;;3.24;76.09;99369.20;2243729;79;21097;-78
2021/04/14 10:46:47;;;;;;;9.73;7.17;;;;;;;3.35;76.34;99361.98;2243708;79;21135;-79
2021/04/14 10:49:48;;;;;;;9.63;7.67;;;;;;;3.31;76.06;99358.77;2244260;79;21155;-79
2021/04/14 10:52:52;;;;;;;7.80;5.47;;;;;;;3.33;76.19;99359.73;2244208;79;21101;-80
2021/04/14 10:55:53;;;;;;;9.63;6.13;;;;;;;3.48;76.52;99359.21;2244224;79;21239;-80
2021/04/14 10:58:54;;;;;;;7.43;5.37;;;;;;;3.51;75.81;99360.64;2244601;79;21101;-80
2021/04/14 11:01:55;;;;;;;5.83;4.63;;;;;;;3.49;76.07;99357.11;2244454;79;21109;-79
2021/04/14 11:04:57;;;;;;;5.77;4.40;;;;;;;3.44;76.08;99355.97;2244323;79;21109;-78
2021/04/14 11:07:58;;;;;;;6.77;5.10;;;;;;;3.42;75.98;99360.17;2244314;79;21114;-78
2021/04/14 11:10:59;;;;;;;8.07;6.43;;;;;;;3.40;76.41;99357.92;2244296;79;21220;-80
2021/04/14 11:14:01;;;;;;;5.30;4.67;;;;;;;3.42;76.48;99355.02;2244255;79;21109;-79
2021/04/14 11:17:02;;;;;;;10.20;5.83;;;;;;;3.36;75.68;99361.17;2244291;79;21509;-79
2021/04/14 11:20:05;;;;;;;8.23;5.70;;;;;;;3.33;76.37;99355.86;2244281;79;21143;-79
2021/04/14 11:23:07;;;;;;;8.50;5.80;;;;;;;3.33;76.66;99361.02;2244130;79;21086;-79
2021/04/14 11:26:08;;;;;;;9.07;6.33;;;;;;;3.33;76.46;99359.33;2243810;79;21097;-79
2021/04/14 11:29:09;;;;;;;7.00;5.87;;;;;;;3.38;76.38;99360.84;2244090;79;21144;-79
2021/04/14 11:32:10;;;;;;;11.20;6.40;;;;;;;3.37;76.71;99364.23;2244128;79;21077;-79
2021/04/14 11:35:12;;;;;;;7.83;6.37;;;;;;;3.40;76.49;99363.09;2244055;79;21393;-78
2021/04/14 11:38:13;;;;;;;7.83;5.87;;;;;;;3.45;76.66;99359.91;2244336;79;21407;-80
2021/04/14 11:41:14;;;;;;;10.93;7.00;;;;;;;3.41;75.85;99357.11;2244603;79;21125;-78
2021/04/14 11:44:16;;;;;;;8.17;7.00;;;;;;;3.44;77.06;99354.68;2244390;79;21057;-78
2021/04/14 11:47:17;;;;;;;7.30;6.57;;;;;;;3.49;77.01;99352.83;2243926;79;21291;-78
2021/04/14 11:50:18;;;;;;;8.93;5.67;;;;;;;3.50;76.65;99351.13;2243738;79;21521;-77
2021/04/14 11:53:21;;;;;;;8.90;6.20;;;;;;;3.45;77.16;99352.58;2244166;79;21094;-78
2021/04/14 11:56:22;;;;;;;10.00;7.93;;;;;;;3.38;76.93;99353.09;2243820;79;21117;-79
2021/04/14 11:59:23;;;;;;;8.10;7.10;;;;;;;3.36;76.88;99352.14;2244226;79;21109;-79
2021/04/14 12:02:26;;;;;;;8.83;6.60;;;;;;;3.39;77.42;99349.70;2243746;79;21701;-79
2021/04/14 12:05:28;;;;;;;12.23;7.20;;;;;;;3.37;77.24;99344.87;2244020;79;21116;-80
2021/04/14 12:08:33;;;;;;;9.05;7.33;;;;;;;3.29;77.08;99342.33;2237420;79;21129;-80
2021/04/14 12:11:34;;;;;;;11.03;7.00;;;;;;;3.33;77.72;99344.25;2226138;80;21129;-79
2021/04/14 12:14:35;;;;;;;9.67;6.47;;;;;;;3.35;77.35;99349.08;2226054;80;21212;-78
2021/04/14 12:17:38;;;;;;;9.47;6.63;;;;;;;3.21;77.33;99345.83;2225989;79;21392;-78
2021/04/14 12:20:39;;;;;;;8.63;5.43;;;;;;;3.23;77.34;99344.62;2226127;80;21094;-79
2021/04/14 12:23:40;;;;;;;9.63;6.33;;;;;;;3.25;76.55;99343.88;2226711;80;21094;-79
2021/04/14 12:26:42;;;;;;;9.13;6.00;;;;;;;3.16;76.89;99348.19;2227089;80;21102;-82
2021/04/14 12:29:43;;;;;;;7.00;6.10;;;;;;;3.16;77.31;99350.77;2227141;80;21450;-82
2021/04/14 12:32:46;;;;;;;9.70;5.60;;;;;;;3.16;77.35;99345.61;2226924;79;21118;-83
2021/04/14 12:35:48;;;;;;;9.80;5.53;;;;;;;3.14;77.18;99349.81;2226785;80;21101;-82
2021/04/14 12:38:50;;;;;;;5.50;4.63;;;;;;;3.16;77.66;99352.06;2226948;79;21136;-81
2021/04/14 12:41:51;;;;;;;7.50;4.60;;;;;;;3.13;77.43;99349.73;2226567;80;21105;-81
2021/04/14 12:44:52;;;;;;;5.10;4.60;;;;;;;3.12;77.24;99352.72;2226824;80;21066;-81
2021/04/14 12:47:53;;;;;;;6.93;5.57;;;;;;;3.08;77.51;99344.35;2226821;80;21498;-84
2021/04/14 12:50:54;;;;;;;12.77;8.60;;;;;;;3.20;77.82;99338.50;2226903;80;21109;-83
2021/04/14 12:53:55;;;;;;;12.03;10.83;;;;;;;3.24;77.53;99339.94;2227066;80;21130;-81
2021/04/14 12:56:56;;;;;;;7.70;6.90;;;;;;;3.33;77.75;99338.68;2227165;79;21220;-83
2021/04/14 12:59:57;;;;;;;11.03;8.80;;;;;;;3.37;77.18;99343.58;2227066;79;21126;-83
2021/04/14 13:02:58;;;;;;;7.23;5.80;;;;;;;3.34;77.83;99347.31;2227342;80;21205;-83
2021/04/14 13:05:59;;;;;;;10.13;7.43;;;;;;;3.43;77.21;99345.17;2227302;80;21117;-82
2021/04/14 13:09:00;;;;;;;13.77;8.20;;;;;;;3.44;77.08;99337.50;2235783;79;21128;-83
2021/04/14 13:12:02;;;;;;;7.83;6.23;;;;;;;3.36;76.84;99343.11;2244914;79;21388;-83
2021/04/14 13:15:03;;;;;;;17.60;9.40;;;;;;;3.44;77.70;99340.48;2243934;79;21244;-84
2021/04/14 13:18:04;;;;;;;11.53;7.03;;;;;;;3.49;76.87;99354.12;2244116;79;21136;-83
2021/04/14 13:21:05;;;;;;;8.40;6.90;;;;;;;3.36;76.87;99345.69;2244098;79;21471;-82
2021/04/14 13:24:06;;;;;;;9.50;7.53;;;;;;;3.24;77.63;99343.80;2244412;79;21231;-82
2021/04/14 13:27:07;;;;;;;8.77;6.63;;;;;;;3.17;77.99;99340.92;2243946;79;21077;-81
2021/04/14 13:30:10;;;;;;;8.07;7.00;;;;;;;3.12;77.93;99338.94;2243992;79;21216;-81
2021/04/14 13:33:11;;;;;;;8.00;7.20;;;;;;;3.05;77.73;99345.48;2244074;79;21106;-82
2021/04/14 13:36:13;;;;;;;7.60;7.00;;;;;;;3.02;78.04;99340.59;2244043;79;21125;-84
2021/04/14 13:39:14;;;;;;;7.63;6.83;;;;;;;2.95;78.27;99343.27;2243978;79;21826;-82
2021/04/14 13:42:15;;;;;;;8.30;7.50;;;;;;;2.91;78.42;99339.17;2243933;79;21109;-82
2021/04/14 13:45:16;;;;;;;8.10;7.30;;;;;;;2.95;78.44;99338.52;2244179;79;21109;-81
2021/04/14 13:48:17;;;;;;;9.37;8.47;;;;;;;3.00;78.12;99340.91;2244100;79;21165;-82
2021/04/14 13:51:18;;;;;;;8.50;7.70;;;;;;;3.01;78.61;99333.25;2245070;79;21101;-83
2021/04/14 13:54:19;;;;;;;10.07;8.20;;;;;;;2.86;78.45;99337.25;2244640;79;21093;-82
2021/04/14 13:57:20;;;;;;;8.93;8.13;;;;;;;2.77;78.78;99334.61;2244729;79;21066;-82
2021/04/14 14:00:21;;;;;;;12.70;8.60;;;;;;;2.67;79.26;99331.98;2244851;79;21129;-82
2021/04/14 14:03:26;;;;;;;8.53;7.73;;;;;;;2.68;79.33;99335.04;2244676;79;21383;-82
2021/04/14 14:06:25;;;;;;;14.33;9.60;;;;;;;2.59;79.42;99341.39;2244315;79;21137;-82
2021/04/14 14:09:26;;;;;;;10.80;8.73;;;;;;;2.51;79.50;99336.73;2235403;79;21134;-81
2021/04/14 14:12:28;;;;;;;11.40;9.80;;;;;;;2.51;79.39;99335.44;2227715;80;21097;-81
2021/04/14 14:15:29;;;;;;;12.37;9.57;;;;;;;2.53;79.59;99330.36;2228736;80;21086;-81